Time;durP1;ratioP1;P1;durP2;ratioP2;P2;SDS_P1;SDS_P2;PMS_P1;PMS_P2;Temp;Humidity;BMP_temperature;BMP_pressure;BME280_temperature;BME280_humidity;BME280_pressure;Samples;Min_cycle;Max_cycle;Signal;HPM_P1;HPM_P2
2023/01/24 00:00:32;;;;;;;17.75;13.10;;;3.90;99.90;;;;;;4790070;29;20046;-88
2023/01/24 00:02:57;;;;;;;18.73;13.35;;;3.90;99.90;;;;;;4791056;29;20146;-88
2023/01/24 00:05:23;;;;;;;18.88;13.30;;;3.90;99.90;;;;;;4806355;29;20103;-88
2023/01/24 00:07:49;;;;;;;22.60;12.82;;;3.90;99.90;;;;;;4790082;29;20134;-88
2023/01/24 00:10:14;;;;;;;19.02;13.52;;;3.90;99.90;;;;;;4790751;29;20047;-88
2023/01/24 00:12:40;;;;;;;18.08;12.73;;;3.90;99.90;;;;;;4790507;29;20146;-89
2023/01/24 00:15:06;;;;;;;18.63;13.27;;;3.90;99.90;;;;;;4806921;29;20046;-88
2023/01/24 00:17:32;;;;;;;20.80;13.75;;;3.90;99.90;;;;;;4790828;29;20050;-88
2023/01/24 00:19:58;;;;;;;21.50;14.10;;;3.90;99.90;;;;;;4791091;29;20088;-89
2023/01/24 00:22:23;;;;;;;19.05;13.27;;;3.90;99.90;;;;;;4805795;29;20139;-89
2023/01/24 00:24:49;;;;;;;16.80;13.13;;;3.90;99.90;;;;;;4790562;29;20072;-89
2023/01/24 00:27:16;;;;;;;20.20;13.30;;;3.90;99.90;;;;;;4790147;29;20105;-88
2023/01/24 00:29:42;;;;;;;20.30;14.00;;;3.80;99.90;;;;;;4789398;29;20096;-88
2023/01/24 00:32:08;;;;;;;19.40;12.88;;;3.90;99.90;;;;;;4790137;29;20054;-88
2023/01/24 00:34:34;;;;;;;20.42;13.60;;;3.90;99.90;;;;;;4790819;29;20051;-88
2023/01/24 00:36:59;;;;;;;22.13;13.57;;;3.90;99.90;;;;;;4805333;29;20058;-88
2023/01/24 00:39:25;;;;;;;20.05;13.80;;;3.90;99.90;;;;;;4806439;29;20043;-89
2023/01/24 00:41:51;;;;;;;19.15;13.75;;;3.90;99.90;;;;;;4788873;29;20579;-89
2023/01/24 00:44:17;;;;;;;20.50;13.30;;;3.90;99.90;;;;;;4789719;29;20133;-89
2023/01/24 00:46:42;;;;;;;23.83;13.82;;;3.90;99.90;;;;;;4790054;29;20103;-89
2023/01/24 00:49:08;;;;;;;21.38;13.18;;;3.90;99.90;;;;;;4789556;29;20142;-89
2023/01/24 00:51:34;;;;;;;20.75;13.15;;;3.90;99.90;;;;;;4806361;29;20416;-89
2023/01/24 00:54:00;;;;;;;20.02;14.20;;;3.90;99.90;;;;;;4790590;29;20050;-90
2023/01/24 00:56:26;;;;;;;18.52;13.63;;;3.90;99.90;;;;;;4805276;29;20039;-89
2023/01/24 00:58:51;;;;;;;21.48;14.02;;;3.90;99.90;;;;;;4804713;29;20141;-89
2023/01/24 01:01:17;;;;;;;23.15;14.32;;;3.90;99.90;;;;;;4806046;29;20054;-89
2023/01/24 01:03:43;;;;;;;20.55;12.98;;;3.90;99.90;;;;;;4805507;29;20053;-89
2023/01/24 01:06:15;;;;;;;20.33;13.98;;;3.90;99.90;;;;;;4805604;29;20046;-89
2023/01/24 01:08:41;;;;;;;19.48;13.27;;;3.90;99.90;;;;;;4805981;29;20051;-89
2023/01/24 01:11:07;;;;;;;20.52;13.23;;;3.90;99.90;;;;;;4804597;29;20061;-89
2023/01/24 01:13:33;;;;;;;23.45;13.70;;;3.90;99.90;;;;;;4789409;29;20137;-89
2023/01/24 01:16:06;;;;;;;18.30;12.77;;;3.90;99.90;;;;;;4790011;29;20035;-89
2023/01/24 01:18:33;;;;;;;21.58;15.13;;;3.90;99.90;;;;;;4805013;29;20393;-89
2023/01/24 01:20:59;;;;;;;22.65;13.90;;;3.80;99.90;;;;;;4789930;29;20054;-89
2023/01/24 01:23:25;;;;;;;18.67;13.85;;;3.90;99.90;;;;;;4805773;29;20407;-89
2023/01/24 01:25:51;;;;;;;21.75;13.65;;;3.90;99.90;;;;;;4788968;29;20035;-89
2023/01/24 01:28:17;;;;;;;18.67;13.43;;;3.80;99.90;;;;;;4805696;29;20514;-89
2023/01/24 01:30:42;;;;;;;22.60;14.45;;;3.80;99.90;;;;;;4789803;29;20062;-90
2023/01/24 01:33:08;;;;;;;20.73;13.95;;;3.90;99.90;;;;;;4788465;29;20043;-89
2023/01/24 01:35:34;;;;;;;18.30;12.93;;;3.80;99.90;;;;;;4789481;29;20055;-89
2023/01/24 01:37:59;;;;;;;19.67;13.43;;;3.90;99.90;;;;;;4805751;29;20111;-89
2023/01/24 01:40:25;;;;;;;19.60;13.63;;;3.80;99.90;;;;;;4804325;29;20050;-89
2023/01/24 01:42:53;;;;;;;20.98;14.05;;;3.80;99.90;;;;;;4774689;29;20103;-88
2023/01/24 01:45:33;;;;;;;19.60;14.40;;;3.80;99.90;;;;;;4804866;29;20468;-89
2023/01/24 01:48:02;;;;;;;25.30;14.93;;;3.80;99.90;;;;;;4789684;29;20057;-88
2023/01/24 01:50:38;;;;;;;20.00;13.77;;;3.80;99.90;;;;;;4788661;29;20031;-89
2023/01/24 01:53:04;;;;;;;20.23;13.80;;;3.80;99.90;;;;;;4789248;29;20051;-88
2023/01/24 01:55:33;;;;;;;23.13;14.95;;;3.80;99.90;;;;;;4808799;29;20038;-89
2023/01/24 01:58:00;;;;;;;21.10;14.80;;;3.80;99.90;;;;;;4793195;29;20043;-88
2023/01/24 02:00:27;;;;;;;25.58;17.45;;;3.80;99.90;;;;;;4792402;29;20043;-89
2023/01/24 02:03:37;;;;;;;19.48;14.07;;;3.80;99.90;;;;;;4793358;29;20047;-88
2023/01/24 02:05:44;;;;;;;23.73;13.70;;;3.80;99.90;;;;;;4792507;29;20051;-89
2023/01/24 02:08:15;;;;;;;19.13;14.55;;;3.80;99.90;;;;;;4792202;29;20066;-88
2023/01/24 02:13:25;;;;;;;20.13;14.20;;;3.80;99.90;;;;;;4791593;29;20075;-88
2023/01/24 02:16:02;;;;;;;23.15;15.52;;;3.80;99.90;;;;;;4792103;29;20085;-89
2023/01/24 02:18:34;;;;;;;22.25;15.02;;;3.80;99.90;;;;;;4791870;29;20054;-89
2023/01/24 02:21:03;;;;;;;23.37;14.93;;;3.80;99.90;;;;;;4791924;29;20051;-89
2023/01/24 02:23:29;;;;;;;24.65;14.88;;;3.80;99.90;;;;;;4808664;29;20794;-89
2023/01/24 02:26:06;;;;;;;20.00;14.10;;;3.80;99.90;;;;;;4792921;29;20102;-89
2023/01/24 02:28:33;;;;;;;23.45;14.93;;;3.80;99.90;;;;;;4808311;29;20131;-88
2023/01/24 02:31:00;;;;;;;21.00;14.23;;;3.80;99.90;;;;;;4809003;29;20051;-88
2023/01/24 02:33:26;;;;;;;21.83;14.77;;;3.80;99.90;;;;;;4792229;29;20493;-88
2023/01/24 02:36:12;;;;;;;25.92;16.35;;;3.80;99.90;;;;;;4791644;29;20099;-89
2023/01/24 02:38:40;;;;;;;22.10;14.25;;;3.80;99.90;;;;;;4792507;29;20051;-88
2023/01/24 02:41:07;;;;;;;21.02;14.18;;;3.80;99.90;;;;;;4792359;29;20046;-89
2023/01/24 02:43:46;;;;;;;22.90;14.30;;;3.80;99.90;;;;;;4807102;29;20051;-89
2023/01/24 02:46:11;;;;;;;24.15;14.65;;;3.80;99.90;;;;;;4808049;29;20051;-89
2023/01/24 02:48:37;;;;;;;20.42;14.13;;;3.70;99.90;;;;;;4792036;29;20372;-89
2023/01/24 02:53:47;;;;;;;23.10;13.90;;;3.80;99.90;;;;;;4791814;29;20504;-89
2023/01/24 02:58:57;;;;;;;21.00;14.70;;;3.80;99.90;;;;;;4793376;29;20400;-89
2023/01/24 03:01:23;;;;;;;22.25;14.90;;;3.80;99.90;;;;;;4808316;29;20107;-89
2023/01/24 03:03:49;;;;;;;24.13;15.32;;;3.80;99.90;;;;;;4806782;29;20389;-89
2023/01/24 03:06:17;;;;;;;20.15;14.63;;;3.80;99.90;;;;;;4806656;29;20508;-89
2023/01/24 03:08:43;;;;;;;24.55;15.00;;;3.80;99.90;;;;;;4808275;29;20031;-89
2023/01/24 03:11:10;;;;;;;23.67;14.93;;;3.80;99.90;;;;;;4806445;29;20584;-89
2023/01/24 03:35:34;;;;;;;24.20;14.90;;;3.80;99.90;;;;;;4791531;29;20061;-88
2023/01/24 03:40:43;;;;;;;20.58;14.32;;;3.80;99.90;;;;;;4807707;29;20428;-88
2023/01/24 03:43:09;;;;;;;20.08;14.60;;;3.80;99.90;;;;;;4791360;29;20053;-89
2023/01/24 03:45:37;;;;;;;22.33;14.63;;;3.80;99.90;;;;;;4790494;29;20051;-89
2023/01/24 03:48:09;;;;;;;19.33;14.55;;;3.80;99.90;;;;;;4791348;29;20043;-89
2023/01/24 03:53:26;;;;;;;22.52;14.52;;;3.80;99.90;;;;;;4790619;29;20061;-89
2023/01/24 03:56:01;;;;;;;20.40;15.00;;;3.80;99.90;;;;;;4807281;29;20047;-89
2023/01/24 03:58:28;;;;;;;20.35;14.40;;;3.70;99.90;;;;;;4805372;29;20058;-88
2023/01/24 04:00:54;;;;;;;22.67;14.77;;;3.70;99.90;;;;;;4806575;29;20043;-88
2023/01/24 04:03:23;;;;;;;26.20;15.63;;;3.70;99.90;;;;;;4805952;29;20050;-89
2023/01/24 04:05:49;;;;;;;25.95;15.48;;;3.70;99.90;;;;;;4807214;29;20043;-89
2023/01/24 04:08:16;;;;;;;23.25;16.20;;;3.70;99.90;;;;;;4805989;29;20054;-88
2023/01/24 04:10:42;;;;;;;23.75;15.10;;;3.70;99.90;;;;;;4791030;29;20515;-88
2023/01/24 04:13:14;;;;;;;19.85;14.95;;;3.70;99.90;;;;;;4789607;29;20047;-89
2023/01/24 04:15:40;;;;;;;22.70;15.85;;;3.70;99.90;;;;;;4777590;29;20400;-88
2023/01/24 04:18:06;;;;;;;20.65;15.40;;;3.80;99.90;;;;;;4790876;29;20051;-88
2023/01/24 04:20:35;;;;;;;20.45;14.82;;;3.70;99.90;;;;;;4789444;29;20054;-88
2023/01/24 04:23:02;;;;;;;21.88;15.32;;;3.70;99.90;;;;;;4790371;29;20121;-88
2023/01/24 04:25:28;;;;;;;22.40;16.05;;;3.70;99.90;;;;;;4790141;29;20051;-88
2023/01/24 04:27:54;;;;;;;20.42;14.80;;;3.70;99.90;;;;;;4806266;29;20121;-89
2023/01/24 04:30:20;;;;;;;22.45;15.00;;;3.70;99.90;;;;;;4805865;29;20051;-88
2023/01/24 04:32:45;;;;;;;22.17;15.50;;;3.80;99.90;;;;;;4806571;29;20057;-89
2023/01/24 04:35:20;;;;;;;20.02;14.70;;;3.70;99.90;;;;;;4789117;29;20047;-89
2023/01/24 04:37:46;;;;;;;22.77;14.77;;;3.70;99.90;;;;;;4806353;29;20042;-89
2023/01/24 04:40:13;;;;;;;24.30;15.95;;;3.70;99.90;;;;;;4789627;29;20057;-88
2023/01/24 04:42:39;;;;;;;22.33;16.02;;;3.70;99.90;;;;;;4789708;29;20045;-89
2023/01/24 04:45:05;;;;;;;22.92;15.63;;;3.70;99.90;;;;;;4790165;29;20047;-88
2023/01/24 04:47:31;;;;;;;22.58;15.60;;;3.70;99.90;;;;;;4789988;29;20046;-89
2023/01/24 04:49:56;;;;;;;22.05;15.75;;;3.70;99.90;;;;;;4806235;29;20039;-88
2023/01/24 04:52:22;;;;;;;23.88;16.25;;;3.70;99.90;;;;;;4789706;29;20177;-88
2023/01/24 04:54:47;;;;;;;22.63;15.35;;;3.70;99.90;;;;;;4806023;29;20035;-88
2023/01/24 04:57:13;;;;;;;22.70;15.43;;;3.70;99.90;;;;;;4789228;29;20062;-88
2023/01/24 04:59:39;;;;;;;22.52;15.63;;;3.70;99.90;;;;;;4789911;29;20134;-89
2023/01/24 05:02:05;;;;;;;20.85;15.38;;;3.70;99.90;;;;;;4787356;29;20039;-88
2023/01/24 05:04:31;;;;;;;23.27;15.98;;;3.70;99.90;;;;;;4785860;29;20058;-89
2023/01/24 05:06:56;;;;;;;23.05;15.60;;;3.70;99.90;;;;;;4802828;29;20046;-90
2023/01/24 05:09:22;;;;;;;22.17;16.08;;;3.70;99.90;;;;;;4789396;29;20399;-89
2023/01/24 05:11:50;;;;;;;25.48;15.60;;;3.70;99.90;;;;;;4790330;29;20461;-94
2023/01/24 05:14:16;;;;;;;20.67;14.98;;;3.70;99.90;;;;;;4807278;29;20146;-91
2023/01/24 05:16:45;;;;;;;21.83;15.85;;;3.80;99.90;;;;;;4790311;29;20132;-90
2023/01/24 05:19:21;;;;;;;22.80;15.90;;;3.70;99.90;;;;;;4806552;29;20057;-93
2023/01/24 05:21:46;;;;;;;21.65;15.25;;;3.80;99.90;;;;;;4807402;29;20142;-93
2023/01/24 05:24:12;;;;;;;20.95;15.43;;;3.80;99.90;;;;;;4806607;29;20555;-92
2023/01/24 05:26:38;;;;;;;21.42;16.10;;;3.80;99.90;;;;;;4806643;29;20121;-91
2023/01/24 05:29:15;;;;;;;22.50;15.93;;;3.70;99.90;;;;;;4790244;29;20042;-91
2023/01/24 05:31:50;;;;;;;24.58;15.55;;;3.70;99.90;;;;;;4807554;29;20034;-93
2023/01/24 05:34:16;;;;;;;23.33;15.98;;;3.70;99.90;;;;;;4807052;29;20090;-92
2023/01/24 05:36:42;;;;;;;24.45;16.75;;;3.70;99.90;;;;;;4790581;29;20086;-91
2023/01/24 05:39:10;;;;;;;26.88;17.02;;;3.70;99.90;;;;;;4782291;29;20086;-91
2023/01/24 05:41:35;;;;;;;24.00;15.93;;;3.70;99.90;;;;;;4806716;29;20048;-93
2023/01/24 05:44:04;;;;;;;22.58;16.25;;;3.70;99.90;;;;;;4806758;29;20115;-90
2023/01/24 05:46:32;;;;;;;22.55;15.45;;;3.70;99.90;;;;;;4805520;29;20089;-91
2023/01/24 05:49:53;;;;;;;20.17;14.55;;;3.70;99.90;;;;;;4805948;29;20078;-90
2023/01/24 05:52:21;;;;;;;25.10;15.02;;;3.70;99.90;;;;;;4789190;29;20051;-89
2023/01/24 05:54:56;;;;;;;21.73;15.10;;;3.70;99.90;;;;;;4805674;29;20043;-89
2023/01/24 05:57:24;;;;;;;20.88;14.90;;;3.70;99.90;;;;;;4789714;29;20086;-90
2023/01/24 05:59:53;;;;;;;22.40;15.73;;;3.70;99.90;;;;;;4788987;29;20061;-90
2023/01/24 06:02:18;;;;;;;22.38;15.38;;;3.70;99.90;;;;;;4805840;29;20042;-90
2023/01/24 06:04:46;;;;;;;22.40;14.93;;;3.70;99.90;;;;;;4805695;29;20522;-90
2023/01/24 06:07:35;;;;;;;20.77;14.25;;;3.70;99.90;;;;;;4788937;29;20119;-90
2023/01/24 06:10:01;;;;;;;21.65;15.25;;;3.70;99.90;;;;;;4804046;29;20119;-90
2023/01/24 06:12:26;;;;;;;20.38;15.15;;;3.70;99.90;;;;;;4804988;29;20058;-89
2023/01/24 06:14:55;;;;;;;20.50;13.90;;;3.70;99.90;;;;;;4788339;29;20137;-89
2023/01/24 06:17:36;;;;;;;22.67;14.90;;;3.70;99.90;;;;;;4788943;29;20046;-90
2023/01/24 06:20:02;;;;;;;20.13;13.90;;;3.70;99.90;;;;;;4788948;29;20078;-90
2023/01/24 06:22:59;;;;;;;19.92;14.32;;;3.60;99.90;;;;;;4804896;29;20093;-90
2023/01/24 06:25:30;;;;;;;19.38;13.68;;;3.70;99.90;;;;;;4761927;30;20154;-90
2023/01/24 06:27:56;;;;;;;21.05;14.10;;;3.60;99.90;;;;;;4771259;30;20047;-90
2023/01/24 06:30:23;;;;;;;20.65;13.77;;;3.60;99.90;;;;;;4771393;30;20043;-90
2023/01/24 06:33:16;;;;;;;19.02;13.68;;;3.60;99.90;;;;;;4787878;29;20055;-91
2023/01/24 06:36:18;;;;;;;21.58;13.18;;;3.60;99.90;;;;;;4795181;24;20374;-91
2023/01/24 06:38:44;;;;;;;24.33;13.73;;;3.60;99.90;;;;;;4788430;29;20050;-90
2023/01/24 06:41:19;;;;;;;20.70;13.50;;;3.60;99.90;;;;;;4807193;29;20396;-90
2023/01/24 06:43:46;;;;;;;22.35;13.40;;;3.70;99.90;;;;;;4791898;29;20054;-91
2023/01/24 06:46:13;;;;;;;21.20;14.10;;;3.60;99.90;;;;;;4791293;29;20050;-90
2023/01/24 06:48:41;;;;;;;18.08;13.10;;;3.70;99.90;;;;;;4807264;29;20042;-90
2023/01/24 06:51:22;;;;;;;19.58;12.18;;;3.70;99.90;;;;;;4791683;29;20412;-90
2023/01/24 06:53:47;;;;;;;20.10;13.90;;;3.60;99.90;;;;;;4792014;29;20437;-90
2023/01/24 06:56:16;;;;;;;21.23;13.10;;;3.60;99.90;;;;;;4790694;29;20068;-91
2023/01/24 06:58:45;;;;;;;18.75;12.45;;;3.60;99.90;;;;;;4769923;24;1405766;-90
2023/01/24 07:01:10;;;;;;;19.05;12.70;;;3.60;99.90;;;;;;4796847;29;20055;-90
2023/01/24 07:03:36;;;;;;;16.63;12.05;;;3.60;99.90;;;;;;4808094;29;20391;-90
2023/01/24 07:06:02;;;;;;;21.38;13.07;;;3.60;99.90;;;;;;4792680;29;20082;-90
2023/01/24 07:08:32;;;;;;;19.48;12.43;;;3.60;99.90;;;;;;4807494;29;20066;-90
2023/01/24 07:10:58;;;;;;;18.95;13.32;;;3.60;99.90;;;;;;4791848;29;20058;-89
2023/01/24 07:13:30;;;;;;;19.55;13.55;;;3.60;99.90;;;;;;4792253;29;20050;-90
2023/01/24 07:15:59;;;;;;;18.27;13.20;;;3.60;99.90;;;;;;4808660;29;20039;-90
2023/01/24 07:18:37;;;;;;;19.25;12.02;;;3.60;99.90;;;;;;4813090;29;20062;-90
2023/01/24 07:21:09;;;;;;;17.80;11.07;;;3.60;99.90;;;;;;4810291;29;20441;-90
2023/01/24 07:23:36;;;;;;;20.20;13.80;;;3.60;99.90;;;;;;4809566;29;20380;-90
2023/01/24 07:26:09;;;;;;;17.30;13.23;;;3.60;99.90;;;;;;4826420;29;20042;-90
2023/01/24 07:28:34;;;;;;;20.98;12.00;;;3.60;99.90;;;;;;4816108;29;20054;-89
2023/01/24 07:31:03;;;;;;;17.17;12.10;;;3.60;99.90;;;;;;4807960;29;20054;-89
2023/01/24 07:33:49;;;;;;;20.17;12.57;;;3.60;99.90;;;;;;4810426;29;20046;-89
2023/01/24 07:36:16;;;;;;;20.10;12.48;;;3.60;99.90;;;;;;4809560;29;20115;-89
2023/01/24 07:38:55;;;;;;;19.55;12.82;;;3.60;99.90;;;;;;4809123;29;20503;-89
2023/01/24 07:41:21;;;;;;;20.98;12.55;;;3.60;99.90;;;;;;4812474;24;20079;-90
2023/01/24 07:43:46;;;;;;;19.25;12.32;;;3.60;99.90;;;;;;4809142;29;20150;-88
2023/01/24 07:46:19;;;;;;;19.08;12.80;;;3.60;99.90;;;;;;4809194;29;20054;-92
2023/01/24 07:48:45;;;;;;;19.20;12.32;;;3.60;99.90;;;;;;4826655;29;20175;-93
2023/01/24 07:51:11;;;;;;;20.00;12.93;;;3.60;99.90;;;;;;4809953;29;20085;-92
2023/01/24 07:53:36;;;;;;;16.95;12.25;;;3.60;99.90;;;;;;4810531;29;20137;-93
2023/01/24 07:56:03;;;;;;;20.92;12.70;;;3.60;99.90;;;;;;4819349;24;20461;-93
2023/01/24 07:58:29;;;;;;;18.40;11.75;;;3.60;99.90;;;;;;4810234;29;20092;-93
2023/01/24 08:01:00;;;;;;;19.58;12.82;;;3.60;99.90;;;;;;4811117;29;20047;-93
2023/01/24 08:03:32;;;;;;;21.02;12.43;;;3.60;99.90;;;;;;4801566;29;20549;-94
2023/01/24 08:06:15;;;;;;;18.63;12.23;;;3.60;99.90;;;;;;4810431;29;20042;-91
2023/01/24 08:08:54;;;;;;;18.98;12.02;;;3.60;99.90;;;;;;4807985;29;20064;-92
2023/01/24 08:11:46;;;;;;;20.65;13.00;;;3.60;99.90;;;;;;4806351;24;20116;-90
2023/01/24 08:14:12;;;;;;;20.17;12.05;;;3.60;99.90;;;;;;4785909;29;20112;-91
2023/01/24 08:16:52;;;;;;;18.23;12.05;;;3.60;99.90;;;;;;4789757;29;20047;-89
2023/01/24 08:19:23;;;;;;;20.55;12.18;;;3.60;99.90;;;;;;4773307;30;20061;-89
2023/01/24 08:21:50;;;;;;;17.77;12.20;;;3.60;99.90;;;;;;4787629;29;20043;-89
2023/01/24 08:24:17;;;;;;;17.80;12.30;;;3.60;99.90;;;;;;4790616;29;20133;-89
2023/01/24 08:26:46;;;;;;;20.50;12.45;;;3.60;99.90;;;;;;4802746;29;20219;-89
2023/01/24 08:29:18;;;;;;;19.60;13.07;;;3.60;99.90;;;;;;4788765;29;20428;-89
2023/01/24 08:31:52;;;;;;;17.73;11.82;;;3.60;99.90;;;;;;4772721;30;20059;-91
2023/01/24 08:34:24;;;;;;;17.33;11.93;;;3.60;99.90;;;;;;4773080;29;20058;-90
2023/01/24 08:36:55;;;;;;;18.83;12.32;;;3.60;99.90;;;;;;4784485;29;20101;-89
2023/01/24 08:39:21;;;;;;;20.98;11.57;;;3.60;99.90;;;;;;4790859;29;20062;-89
2023/01/24 08:42:04;;;;;;;19.48;12.32;;;3.60;99.90;;;;;;4788800;29;20043;-90
2023/01/24 08:44:30;;;;;;;17.92;12.27;;;3.60;99.90;;;;;;4788867;29;20054;-88
2023/01/24 08:46:56;;;;;;;19.42;11.93;;;3.60;99.90;;;;;;4806611;29;20035;-88
2023/01/24 08:49:21;;;;;;;17.45;11.88;;;3.60;99.90;;;;;;4789899;29;20050;-86
2023/01/24 08:51:59;;;;;;;17.70;11.98;;;3.60;99.90;;;;;;4790353;29;20488;-85
2023/01/24 08:54:32;;;;;;;18.00;12.30;;;3.60;99.90;;;;;;4805606;29;20046;-84
2023/01/24 08:57:04;;;;;;;17.05;11.13;;;3.60;99.90;;;;;;4790363;29;20043;-88
2023/01/24 09:02:15;;;;;;;18.92;12.15;;;3.60;99.90;;;;;;4847979;24;20054;-88
2023/01/24 09:04:42;;;;;;;17.80;11.98;;;3.60;99.90;;;;;;4826669;29;20050;-88
2023/01/24 09:07:09;;;;;;;17.80;12.43;;;3.60;99.90;;;;;;4842592;29;20445;-88
2023/01/24 09:09:35;;;;;;;17.42;11.57;;;3.50;99.90;;;;;;4825713;29;20054;-87
2023/01/24 09:12:01;;;;;;;17.80;12.45;;;3.50;99.90;;;;;;4826717;29;20517;-88
2023/01/24 09:14:26;;;;;;;17.60;11.68;;;3.60;99.90;;;;;;4826381;29;20045;-87
2023/01/24 09:16:52;;;;;;;19.17;12.43;;;3.60;99.90;;;;;;4841745;29;20046;-88
2023/01/24 09:19:18;;;;;;;16.45;11.45;;;3.60;99.90;;;;;;4842221;29;20101;-88
2023/01/24 09:21:44;;;;;;;17.58;12.27;;;3.60;99.90;;;;;;4842425;29;20452;-88
2023/01/24 09:24:10;;;;;;;20.27;12.10;;;3.60;99.90;;;;;;4841538;29;20102;-88
2023/01/24 09:26:36;;;;;;;18.65;12.35;;;3.50;99.90;;;;;;4826503;29;20042;-88
2023/01/24 09:29:01;;;;;;;17.17;12.63;;;3.50;99.90;;;;;;4826215;29;20072;-88
2023/01/24 09:31:27;;;;;;;18.10;11.75;;;3.50;99.90;;;;;;4825569;29;20135;-88
2023/01/24 09:33:53;;;;;;;19.67;12.50;;;3.50;99.90;;;;;;4842583;29;20078;-88
2023/01/24 09:36:21;;;;;;;19.42;12.15;;;3.50;99.90;;;;;;4825731;29;20076;-89
2023/01/24 09:38:46;;;;;;;18.88;11.85;;;3.60;99.90;;;;;;4841775;29;20050;-89
2023/01/24 09:41:38;;;;;;;19.30;12.25;;;3.50;99.90;;;;;;4842316;29;20121;-89
2023/01/24 09:44:17;;;;;;;17.90;11.35;;;3.60;99.90;;;;;;4825509;29;20080;-89
2023/01/24 09:46:51;;;;;;;17.58;12.18;;;3.50;99.90;;;;;;4842207;29;20095;-88
2023/01/24 09:49:40;;;;;;;20.00;11.80;;;3.50;99.90;;;;;;4825765;29;20049;-89
2023/01/24 09:52:12;;;;;;;20.65;11.63;;;3.50;99.90;;;;;;4841808;29;20054;-89
2023/01/24 09:54:58;;;;;;;20.00;11.83;;;3.50;99.90;;;;;;4842160;29;20089;-88
2023/01/24 09:57:42;;;;;;;15.82;11.40;;;3.50;99.90;;;;;;4841582;29;20073;-89
2023/01/24 10:00:21;;;;;;;20.30;11.52;;;3.50;99.90;;;;;;4841885;29;20149;-89
2023/01/24 10:02:58;;;;;;;17.10;11.43;;;3.50;99.90;;;;;;4842166;29;20057;-89
2023/01/24 10:05:51;;;;;;;19.48;12.45;;;3.50;99.90;;;;;;4824702;29;20082;-89
2023/01/24 10:08:58;;;;;;;17.10;11.45;;;3.60;99.90;;;;;;4819831;29;20054;-89
2023/01/24 10:11:46;;;;;;;17.52;11.00;;;3.50;99.90;;;;;;4825417;29;20103;-89
2023/01/24 10:14:43;;;;;;;19.73;12.23;;;3.50;99.90;;;;;;4826191;29;20395;-88
2023/01/24 10:17:53;;;;;;;17.83;11.55;;;3.50;99.90;;;;;;4845582;29;20046;-89
2023/01/24 10:21:00;;;;;;;21.05;12.40;;;3.50;99.90;;;;;;4844671;29;20057;-89
2023/01/24 10:23:40;;;;;;;15.68;11.32;;;3.50;99.90;;;;;;4828582;29;20062;-88
2023/01/24 10:26:19;;;;;;;17.67;11.93;;;3.50;99.90;;;;;;4845003;29;20057;-89
2023/01/24 10:28:51;;;;;;;20.55;13.07;;;3.50;99.90;;;;;;4829154;29;20053;-88
2023/01/24 10:31:27;;;;;;;16.77;11.13;;;3.50;99.90;;;;;;4845579;29;20057;-89
2023/01/24 10:33:59;;;;;;;20.58;11.93;;;3.50;99.90;;;;;;4828252;29;20133;-88
2023/01/24 10:37:01;;;;;;;17.73;12.32;;;3.50;99.90;;;;;;4828932;29;20059;-88
2023/01/24 10:39:30;;;;;;;19.10;12.63;;;3.60;99.90;;;;;;4811042;29;20449;-90
2023/01/24 10:41:56;;;;;;;17.83;12.05;;;3.60;99.90;;;;;;4840344;29;20053;-89
2023/01/24 10:44:36;;;;;;;18.85;12.30;;;3.60;99.90;;;;;;4827400;29;20113;-90
2023/01/24 10:47:18;;;;;;;18.15;11.52;;;3.60;99.90;;;;;;4828167;29;20050;-90
2023/01/24 10:50:04;;;;;;;18.40;12.10;;;3.60;99.90;;;;;;4828557;29;20106;-89
2023/01/24 10:52:29;;;;;;;17.85;11.80;;;3.60;99.90;;;;;;4845036;29;20042;-89
2023/01/24 10:54:57;;;;;;;23.13;12.68;;;3.60;99.90;;;;;;4827650;29;20079;-90
2023/01/24 10:57:38;;;;;;;18.88;12.13;;;3.60;99.90;;;;;;4844428;29;20054;-88
2023/01/24 11:00:53;;;;;;;;;;;;;;;;;;;;;
2023/01/24 11:04:39;;;;;;;;;;;;;;;;;;;;;
2023/01/24 11:12:00;;;;;;;;;;;;;;;;;;;;;
2023/01/24 11:14:48;;;;;;;19.88;12.40;;;3.60;99.90;;;;;;4732277;30;20052;-90
2023/01/24 11:17:41;;;;;;;19.02;12.10;;;3.60;99.90;;;;;;4772906;30;20085;-89
2023/01/24 11:20:27;;;;;;;19.10;12.10;;;3.70;99.90;;;;;;4774340;29;20103;-92
2023/01/24 11:23:27;;;;;;;;;;;;;;;;;;;;;
2023/01/24 11:26:25;;;;;;;16.88;12.35;;;3.70;99.90;;;;;;4844040;29;20054;-92
2023/01/24 11:29:16;;;;;;;18.95;12.00;;;3.70;99.90;;;;;;4825941;29;20190;-90
2023/01/24 11:31:56;;;;;;;19.30;12.52;;;3.70;99.90;;;;;;4810383;29;20050;-90
2023/01/24 11:35:01;;;;;;;18.45;12.20;;;3.70;99.90;;;;;;4818013;29;20057;-91
2023/01/24 11:38:02;;;;;;;19.73;12.38;;;3.60;99.90;;;;;;4822664;29;20053;-90
2023/01/24 11:41:07;;;;;;;19.23;12.27;;;3.70;99.90;;;;;;4841245;29;20046;-91
2023/01/24 11:43:54;;;;;;;17.08;13.07;;;3.70;99.90;;;;;;4773559;30;20055;-90
2023/01/24 11:46:26;;;;;;;19.13;11.88;;;3.70;99.90;;;;;;4839740;29;20041;-91
2023/01/24 11:49:36;;;;;;;20.95;12.57;;;3.70;99.90;;;;;;4836438;29;20045;-89
2023/01/24 11:52:39;;;;;;;17.08;11.52;;;3.70;99.90;;;;;;4811180;29;20046;-91
2023/01/24 11:55:23;;;;;;;18.20;12.02;;;3.70;99.90;;;;;;4830077;29;20045;-90
2023/01/24 11:58:16;;;;;;;18.80;11.95;;;3.70;99.90;;;;;;4850524;29;20054;-90
2023/01/24 12:01:10;;;;;;;19.65;12.57;;;3.70;99.90;;;;;;4822287;29;20464;-90
2023/01/24 12:04:16;;;;;;;21.08;12.40;;;3.70;99.90;;;;;;4846500;29;20042;-90
2023/01/24 12:07:00;;;;;;;17.65;12.30;;;3.70;99.90;;;;;;4808670;29;20142;-90
2023/01/24 12:09:39;;;;;;;16.58;11.63;;;3.70;99.90;;;;;;4827574;29;20424;-91
2023/01/24 12:12:52;;;;;;;19.55;12.57;;;3.70;99.90;;;;;;4826595;29;20185;-90
2023/01/24 12:15:41;;;;;;;19.45;11.98;;;3.70;99.90;;;;;;4827288;29;20191;-90
2023/01/24 12:18:35;;;;;;;19.13;12.43;;;3.70;99.90;;;;;;4836146;29;20181;-89
2023/01/24 12:21:17;;;;;;;17.13;12.27;;;3.70;99.90;;;;;;4820388;29;20516;-91
2023/01/24 12:24:10;;;;;;;19.00;11.70;;;3.70;99.90;;;;;;4847860;29;20053;-89
2023/01/24 12:26:44;;;;;;;19.83;12.45;;;3.70;99.90;;;;;;4817132;29;20050;-90
2023/01/24 12:29:33;;;;;;;16.98;11.82;;;3.80;99.90;;;;;;4837433;29;20045;-90
2023/01/24 12:32:15;;;;;;;18.88;13.00;;;3.70;99.90;;;;;;4843770;29;20049;-90
2023/01/24 12:35:03;;;;;;;18.75;12.68;;;3.70;99.90;;;;;;4849152;29;20045;-90
2023/01/24 12:37:59;;;;;;;19.15;12.55;;;3.80;99.90;;;;;;4829959;29;20042;-90
2023/01/24 12:40:50;;;;;;;19.55;12.18;;;3.80;99.90;;;;;;4847214;29;20053;-89
2023/01/24 12:43:36;;;;;;;18.80;12.00;;;3.70;99.90;;;;;;4808351;29;20053;-89
2023/01/24 12:46:09;;;;;;;20.20;12.43;;;3.80;99.90;;;;;;4824582;29;20046;-89
2023/01/24 12:49:24;;;;;;;18.75;12.85;;;3.80;99.90;;;;;;4824221;29;20129;-89
2023/01/24 12:52:40;;;;;;;18.58;12.25;;;3.80;99.90;;;;;;4808459;29;20050;-89
2023/01/24 12:55:15;;;;;;;16.90;12.20;;;3.80;99.90;;;;;;4835759;29;20049;-89
2023/01/24 12:58:04;;;;;;;18.75;13.80;;;3.80;99.90;;;;;;4842897;29;20121;-88
2023/01/24 13:01:05;;;;;;;18.00;11.93;;;3.80;99.90;;;;;;4824489;29;21390;-89
2023/01/24 13:04:15;;;;;;;19.52;12.43;;;3.80;99.90;;;;;;4835432;29;20563;-90
2023/01/24 13:07:04;;;;;;;19.80;13.20;;;3.80;99.90;;;;;;4843215;29;20057;-89
2023/01/24 13:09:58;;;;;;;19.42;12.63;;;3.80;99.90;;;;;;4842174;29;20053;-88
2023/01/24 13:12:29;;;;;;;21.25;13.13;;;3.80;99.90;;;;;;4842572;29;20046;-89
2023/01/24 13:15:09;;;;;;;19.75;12.85;;;3.80;99.90;;;;;;4842204;29;20042;-88
2023/01/24 13:17:51;;;;;;;16.58;12.07;;;3.80;99.90;;;;;;4826473;29;20065;-89
2023/01/24 13:20:45;;;;;;;18.80;12.73;;;3.80;99.90;;;;;;4824291;29;20050;-89
2023/01/24 13:23:50;;;;;;;16.90;12.27;;;3.80;99.90;;;;;;4825369;29;20106;-88
2023/01/24 13:26:29;;;;;;;16.05;12.43;;;3.80;99.90;;;;;;4842511;29;20045;-89
2023/01/24 13:29:26;;;;;;;17.15;12.18;;;3.80;99.90;;;;;;4826005;29;20451;-89
2023/01/24 13:31:51;;;;;;;19.00;12.20;;;3.80;99.90;;;;;;4842386;29;20608;-89
2023/01/24 13:34:20;;;;;;;19.73;13.75;;;3.90;99.90;;;;;;4826046;29;20049;-89
2023/01/24 13:36:49;;;;;;;18.83;11.88;;;3.80;99.90;;;;;;4826086;29;20057;-94
2023/01/24 13:39:42;;;;;;;18.13;12.02;;;3.80;99.90;;;;;;4842605;29;20391;-91
2023/01/24 13:42:34;;;;;;;16.88;12.55;;;3.80;99.90;;;;;;4844793;29;20084;-92
2023/01/24 13:45:41;;;;;;;17.60;13.07;;;3.80;99.90;;;;;;4837472;29;20438;-92
2023/01/24 13:48:45;;;;;;;16.30;11.95;;;3.80;99.90;;;;;;4832297;29;20141;-92
2023/01/24 13:51:16;;;;;;;18.13;12.80;;;3.80;99.90;;;;;;4844829;29;20143;-92
2023/01/24 13:54:24;;;;;;;18.75;13.00;;;3.80;99.90;;;;;;4827245;29;20145;-93
2023/01/24 13:57:19;;;;;;;16.30;12.23;;;3.80;99.90;;;;;;4832231;29;20491;-93
2023/01/24 14:00:10;;;;;;;16.75;12.10;;;3.80;99.90;;;;;;4831495;29;20046;-92
2023/01/24 14:02:44;;;;;;;19.50;13.73;;;3.80;99.90;;;;;;4831926;29;20061;-92